createdAt,value
2022-10-12T00:00:13.210Z,5.90
2022-10-12T00:02:42.172Z,4.83
2022-10-12T00:05:10.201Z,5.33
2022-10-12T00:07:40.077Z,5.20
2022-10-12T00:10:08.750Z,4.80
2022-10-12T00:12:36.543Z,5.00
2022-10-12T00:15:04.765Z,4.83
2022-10-12T00:17:32.583Z,5.20
2022-10-12T00:20:00.420Z,4.80
2022-10-12T00:22:28.236Z,4.33
2022-10-12T00:24:57.324Z,4.40
2022-10-12T00:27:25.088Z,5.27
2022-10-12T00:29:52.856Z,4.90
2022-10-12T00:32:20.719Z,4.90
2022-10-12T00:34:48.507Z,5.10
2022-10-12T00:37:16.248Z,4.77
2022-10-12T00:39:44.012Z,4.70
2022-10-12T00:42:13.972Z,4.80
2022-10-12T00:44:44.335Z,5.47
2022-10-12T00:47:25.246Z,5.03
2022-10-12T00:49:58.733Z,5.23
2022-10-12T00:52:32.402Z,5.10
2022-10-12T00:55:01.943Z,4.90
2022-10-12T00:57:31.208Z,4.70
2022-10-12T01:00:03.356Z,5.17
2022-10-12T01:02:33.868Z,5.03
2022-10-12T01:05:02.488Z,5.20
2022-10-12T01:07:30.256Z,4.93
2022-10-12T01:09:58.185Z,5.80
2022-10-12T01:12:26.336Z,5.37
2022-10-12T01:14:55.829Z,5.03
2022-10-12T01:17:35.866Z,5.60
2022-10-12T01:20:45.079Z,5.53
2022-10-12T01:23:57.401Z,4.90
2022-10-12T01:26:47.045Z,5.10
2022-10-12T01:29:33.006Z,5.67
2022-10-12T01:32:07.707Z,5.43
2022-10-12T01:34:44.987Z,4.90
2022-10-12T01:37:20.263Z,5.47
2022-10-12T01:39:53.214Z,5.50
2022-10-12T01:42:25.536Z,5.33
2022-10-12T01:45:02.454Z,5.10
2022-10-12T01:47:32.008Z,5.17
2022-10-12T01:50:01.091Z,5.57
2022-10-12T01:52:30.631Z,5.20
2022-10-12T01:55:09.152Z,5.37
2022-10-12T01:57:46.768Z,5.20
2022-10-12T02:00:16.990Z,5.13
2022-10-12T02:03:00.153Z,5.10
2022-10-12T02:05:36.809Z,5.40
2022-10-12T02:08:11.490Z,5.57
2022-10-12T02:10:45.277Z,6.00
2022-10-12T02:13:16.109Z,6.20
2022-10-12T02:15:45.815Z,5.53
2022-10-12T02:18:18.460Z,5.50
2022-10-12T02:20:48.083Z,5.40
2022-10-12T02:23:17.631Z,5.33
2022-10-12T02:25:47.204Z,4.93
2022-10-12T02:28:19.492Z,5.20
2022-10-12T02:30:53.421Z,5.90
2022-10-12T02:33:26.718Z,5.70
2022-10-12T02:36:00.142Z,5.40
2022-10-12T02:38:32.920Z,5.50
2022-10-12T02:41:06.448Z,5.00
2022-10-12T02:43:38.903Z,5.67
2022-10-12T02:46:09.373Z,5.30
2022-10-12T02:48:41.384Z,5.17
2022-10-12T02:51:10.487Z,5.23
2022-10-12T02:53:38.868Z,5.23
2022-10-12T02:56:11.164Z,5.07
2022-10-12T02:58:38.956Z,5.20
2022-10-12T03:01:06.854Z,5.20
2022-10-12T03:03:34.608Z,5.07
2022-10-12T03:06:03.804Z,5.80
2022-10-12T03:08:31.883Z,5.70
2022-10-12T03:11:02.424Z,5.87
2022-10-12T03:13:30.405Z,6.13
2022-10-12T03:16:03.448Z,5.80
2022-10-12T03:18:31.399Z,5.80
2022-10-12T03:20:59.319Z,5.70
2022-10-12T03:23:28.587Z,5.33
2022-10-12T03:25:56.324Z,5.80
2022-10-12T03:28:24.177Z,5.33
2022-10-12T03:30:51.975Z,5.27
2022-10-12T03:33:20.117Z,5.33
2022-10-12T03:35:48.532Z,5.37
2022-10-12T03:38:16.772Z,5.37
2022-10-12T03:40:47.057Z,5.60
2022-10-12T03:43:15.221Z,5.00
2022-10-12T03:45:43.191Z,5.60
2022-10-12T03:48:11.167Z,6.20
2022-10-12T03:50:40.075Z,5.70
2022-10-12T03:53:08.248Z,5.30
2022-10-12T03:55:36.024Z,6.13
2022-10-12T03:58:05.184Z,6.00
2022-10-12T04:00:32.984Z,5.93
2022-10-12T04:03:02.114Z,5.90
2022-10-12T04:05:29.959Z,5.87
2022-10-12T04:07:57.941Z,5.80
2022-10-12T04:10:25.968Z,5.77
2022-10-12T04:12:53.748Z,5.93
2022-10-12T04:17:55.586Z,6.93
2022-10-12T04:20:23.362Z,6.00
2022-10-12T04:22:51.133Z,6.30
2022-10-12T04:25:18.988Z,6.83
2022-10-12T04:27:46.741Z,6.83
2022-10-12T04:30:14.791Z,6.67
2022-10-12T04:32:43.947Z,6.00
2022-10-12T04:35:12.164Z,6.10
2022-10-12T04:37:40.076Z,6.23
2022-10-12T04:40:09.349Z,6.47
2022-10-12T04:42:37.128Z,7.20
2022-10-12T04:45:05.499Z,6.90
2022-10-12T04:47:35.758Z,6.00
2022-10-12T04:50:05.649Z,5.87
2022-10-12T04:52:33.498Z,6.47
2022-10-12T04:55:01.465Z,6.37
2022-10-12T04:57:29.255Z,6.63
2022-10-12T04:59:57.030Z,7.23
2022-10-12T05:02:24.806Z,5.93
2022-10-12T05:04:52.750Z,7.10
2022-10-12T05:07:21.842Z,6.70
2022-10-12T05:09:49.584Z,6.57
2022-10-12T05:12:18.150Z,7.90
2022-10-12T05:14:45.922Z,6.70
2022-10-12T05:17:13.710Z,6.70
2022-10-12T05:19:41.475Z,6.97
2022-10-12T05:22:09.348Z,7.27
2022-10-12T05:24:38.544Z,7.07
2022-10-12T05:27:06.289Z,6.40
2022-10-12T05:29:34.061Z,6.90
2022-10-12T05:32:01.900Z,6.27
2022-10-12T05:34:29.711Z,7.30
2022-10-12T05:36:58.215Z,6.57
2022-10-12T05:39:26.088Z,7.13
2022-10-12T05:41:55.846Z,7.30
2022-10-12T05:44:23.662Z,7.03
2022-10-12T05:46:51.437Z,7.70
2022-10-12T05:49:19.200Z,6.90
2022-10-12T05:51:46.975Z,7.20
2022-10-12T05:54:14.759Z,7.33
2022-10-12T05:56:42.566Z,7.50
2022-10-12T05:59:11.716Z,6.97
2022-10-12T06:01:39.555Z,7.73
2022-10-12T06:04:07.342Z,7.57
2022-10-12T06:06:35.106Z,8.03
2022-10-12T06:09:02.976Z,7.50
2022-10-12T06:11:34.021Z,6.70
2022-10-12T06:14:04.133Z,7.60
2022-10-12T06:16:33.258Z,7.23
2022-10-12T06:19:01.216Z,7.03
2022-10-12T06:21:33.606Z,7.47
2022-10-12T06:24:02.268Z,7.97
2022-10-12T06:26:30.096Z,7.00
2022-10-12T06:28:57.958Z,7.57
2022-10-12T06:31:25.816Z,8.30
2022-10-12T06:33:54.946Z,9.20
2022-10-12T06:36:23.634Z,8.90
2022-10-12T06:38:51.524Z,8.03
2022-10-12T06:41:19.332Z,8.33
2022-10-12T06:43:47.044Z,8.37
2022-10-12T06:46:14.812Z,8.20
2022-10-12T06:48:42.574Z,8.47
2022-10-12T06:51:11.646Z,7.77
2022-10-12T06:53:39.406Z,7.73
2022-10-12T06:56:07.745Z,9.57
2022-10-12T06:58:35.571Z,8.93
2022-10-12T07:01:05.321Z,7.80
2022-10-12T07:03:33.502Z,9.00
2022-10-12T07:06:07.472Z,8.57
2022-10-12T07:08:36.683Z,8.03
2022-10-12T07:11:06.200Z,8.50
2022-10-12T07:13:34.643Z,8.87
2022-10-12T07:16:02.637Z,9.20
2022-10-12T07:18:30.391Z,9.23
2022-10-12T07:20:59.577Z,9.57
2022-10-12T07:23:27.687Z,8.60
2022-10-12T07:25:56.832Z,10.03
2022-10-12T07:28:24.879Z,9.97
2022-10-12T07:30:53.199Z,9.50
2022-10-12T07:33:21.070Z,10.27
2022-10-12T07:36:13.157Z,10.20
2022-10-12T07:38:44.359Z,10.60
2022-10-12T07:41:14.372Z,10.20
2022-10-12T07:43:42.849Z,10.30
2022-10-12T07:46:11.203Z,10.00
2022-10-12T07:48:44.510Z,9.80
2022-10-12T07:51:16.831Z,10.47
2022-10-12T07:53:44.636Z,9.30
2022-10-12T07:56:15.939Z,9.53
2022-10-12T07:58:43.995Z,9.50
2022-10-12T08:01:11.755Z,9.77
2022-10-12T08:03:39.500Z,9.20
2022-10-12T08:06:11.534Z,9.40
2022-10-12T08:08:39.565Z,9.57
2022-10-12T08:11:08.498Z,9.23
2022-10-12T08:13:38.318Z,9.07
2022-10-12T08:16:09.009Z,9.53
2022-10-12T08:18:36.785Z,8.30
2022-10-12T08:21:05.700Z,9.27
2022-10-12T08:23:34.700Z,9.43
2022-10-12T08:26:02.927Z,8.40
2022-10-12T08:28:31.095Z,9.03
2022-10-12T08:31:00.889Z,8.47
2022-10-12T08:33:30.640Z,8.43
2022-10-12T08:36:03.003Z,7.83
2022-10-12T08:38:31.266Z,7.90
2022-10-12T08:41:05.870Z,8.10
2022-10-12T08:43:45.516Z,8.13
2022-10-12T08:46:14.710Z,8.40
2022-10-12T08:48:48.827Z,8.10
2022-10-12T08:51:22.012Z,7.80
2022-10-12T08:53:55.375Z,8.40
2022-10-12T08:56:23.888Z,8.50
2022-10-12T08:58:53.770Z,9.47
2022-10-12T09:01:30.435Z,9.00
2022-10-12T09:04:17.949Z,8.97
2022-10-12T09:06:50.223Z,9.07
2022-10-12T09:09:43.959Z,8.73
2022-10-12T09:12:27.323Z,9.30
2022-10-12T09:15:00.363Z,8.60
2022-10-12T09:17:38.244Z,8.07
2022-10-12T09:20:16.633Z,8.50
2022-10-12T09:22:48.627Z,8.27
2022-10-12T09:25:23.572Z,8.33
2022-10-12T09:27:52.147Z,8.83
2022-10-12T09:30:21.837Z,8.17
2022-10-12T09:33:13.943Z,7.70
2022-10-12T09:35:42.784Z,7.30
2022-10-12T09:38:11.840Z,6.60
2022-10-12T09:40:40.380Z,6.57
2022-10-12T09:43:08.796Z,6.50
2022-10-12T09:45:38.231Z,6.10
2022-10-12T09:48:16.422Z,6.27
2022-10-12T09:50:48.607Z,6.90
2022-10-12T09:53:28.243Z,7.37
2022-10-12T09:55:59.646Z,6.70
2022-10-12T09:58:28.901Z,6.10
2022-10-12T10:01:13.361Z,6.13
2022-10-12T10:03:42.795Z,5.70
2022-10-12T10:06:10.561Z,5.97
2022-10-12T10:08:43.476Z,5.40
2022-10-12T10:11:22.327Z,4.90
2022-10-12T10:13:53.103Z,5.37
2022-10-12T10:16:23.190Z,5.57
2022-10-12T10:18:57.532Z,5.67
2022-10-12T10:21:28.688Z,6.67
2022-10-12T10:23:58.808Z,5.60
2022-10-12T10:26:28.924Z,5.37
2022-10-12T10:29:15.316Z,5.87
2022-10-12T10:31:45.933Z,5.20
2022-10-12T10:34:22.980Z,5.80
2022-10-12T10:36:52.492Z,5.97
2022-10-12T10:39:23.797Z,6.27
2022-10-12T10:41:53.253Z,7.03
2022-10-12T10:44:27.027Z,6.73
2022-10-12T10:46:56.096Z,6.27
2022-10-12T10:49:34.044Z,6.37
2022-10-12T10:52:03.954Z,6.60
2022-10-12T10:54:34.454Z,5.60
2022-10-12T10:57:05.188Z,5.90
2022-10-12T10:59:48.033Z,5.43
2022-10-12T11:02:21.964Z,5.80
2022-10-12T11:04:54.964Z,5.73
2022-10-12T11:07:28.729Z,5.20
2022-10-12T11:09:59.513Z,4.90
2022-10-12T11:12:31.767Z,5.10
2022-10-12T11:15:07.016Z,5.10
2022-10-12T11:17:38.155Z,5.20
2022-10-12T11:20:35.010Z,4.80
2022-10-12T11:23:05.834Z,5.30
2022-10-12T11:25:40.428Z,5.00
2022-10-12T11:28:09.287Z,5.37
2022-10-12T11:30:41.781Z,5.57
2022-10-12T11:33:15.171Z,6.23
2022-10-12T11:35:46.406Z,6.27
2022-10-12T11:38:21.212Z,7.20
2022-10-12T11:41:13.791Z,6.67
2022-10-12T11:43:47.380Z,6.13
2022-10-12T11:46:19.930Z,6.63
2022-10-12T11:48:52.760Z,6.00
2022-10-12T11:51:21.899Z,5.77
2022-10-12T11:53:55.906Z,6.23
2022-10-12T11:56:28.674Z,6.53
2022-10-12T11:59:03.776Z,6.57
2022-10-12T12:01:44.219Z,5.70
2022-10-12T12:07:44.393Z,7.10
2022-10-12T12:10:54.771Z,6.30
2022-10-12T12:13:26.971Z,6.67
2022-10-12T12:16:32.594Z,6.90
2022-10-12T12:19:37.699Z,6.83
2022-10-12T12:22:18.044Z,7.07
2022-10-12T12:25:06.801Z,6.13
2022-10-12T12:27:38.293Z,7.03
2022-10-12T12:30:22.248Z,7.60
2022-10-12T12:32:53.459Z,7.43
2022-10-12T12:35:25.344Z,7.40
2022-10-12T12:38:08.208Z,7.30
2022-10-12T12:40:37.860Z,6.30
2022-10-12T12:43:35.145Z,6.07
2022-10-12T12:46:11.809Z,5.40
2022-10-12T12:49:01.922Z,5.60
2022-10-12T12:51:41.707Z,5.70
2022-10-12T12:54:17.344Z,5.67
2022-10-12T12:57:01.917Z,7.13
2022-10-12T13:00:06.690Z,6.70
2022-10-12T13:03:11.462Z,6.40
2022-10-12T13:06:18.101Z,6.30
2022-10-12T13:09:14.380Z,7.30
2022-10-12T13:11:55.350Z,6.37
2022-10-12T13:14:42.168Z,5.77
2022-10-12T13:17:34.381Z,7.27
2022-10-12T13:20:08.274Z,7.13
2022-10-12T13:22:36.343Z,7.30
2022-10-12T13:25:08.541Z,7.40
2022-10-12T13:27:46.068Z,7.03
2022-10-12T13:30:21.763Z,7.70
2022-10-12T13:32:57.012Z,7.23
2022-10-12T13:35:32.435Z,6.73
2022-10-12T13:38:05.819Z,6.83
2022-10-12T13:40:39.401Z,6.13
2022-10-12T13:43:29.875Z,6.37
2022-10-12T13:45:57.849Z,6.43
2022-10-12T13:48:53.734Z,7.37
2022-10-12T13:51:24.008Z,8.53
2022-10-12T13:53:51.963Z,7.60
2022-10-12T13:56:21.867Z,8.47
2022-10-12T13:58:54.687Z,8.70
2022-10-12T14:01:22.481Z,8.87
2022-10-12T14:03:50.315Z,8.93
2022-10-12T14:06:29.645Z,8.97
2022-10-12T14:08:58.900Z,8.13
2022-10-12T14:11:27.574Z,8.43
2022-10-12T14:13:57.807Z,8.10
2022-10-12T14:16:25.655Z,7.80
2022-10-12T14:18:53.473Z,7.47
2022-10-12T14:21:23.927Z,6.40
2022-10-12T14:23:54.024Z,5.47
2022-10-12T14:26:28.991Z,5.40
2022-10-12T14:28:59.345Z,4.20
2022-10-12T14:31:52.069Z,4.43
2022-10-12T14:34:37.839Z,5.60
2022-10-12T14:37:20.443Z,4.17
2022-10-12T14:39:50.046Z,3.70
2022-10-12T14:42:21.356Z,3.93
2022-10-12T14:44:50.637Z,3.13
2022-10-12T14:47:22.663Z,3.47
2022-10-12T14:49:53.590Z,3.63
2022-10-12T14:52:24.027Z,4.07
2022-10-12T14:54:52.533Z,4.57
2022-10-12T14:57:21.427Z,5.00
2022-10-12T14:59:51.056Z,5.50
2022-10-12T15:02:21.378Z,5.53
2022-10-12T15:04:49.588Z,6.00
2022-10-12T15:07:19.753Z,6.17
2022-10-12T15:09:48.122Z,6.03
2022-10-12T15:12:17.130Z,5.77
2022-10-12T15:14:45.746Z,6.70
2022-10-12T15:17:16.026Z,7.17
2022-10-12T15:19:44.628Z,7.10
2022-10-12T15:22:16.043Z,6.53
2022-10-12T15:24:44.335Z,8.07
2022-10-12T15:27:12.724Z,7.67
2022-10-12T15:29:41.127Z,7.33
2022-10-12T15:32:11.428Z,7.67
2022-10-12T15:34:41.025Z,8.37
2022-10-12T15:37:09.550Z,7.90
2022-10-12T15:39:37.714Z,8.77
2022-10-12T15:42:06.003Z,8.57
2022-10-12T15:44:40.363Z,8.00
2022-10-12T15:47:09.981Z,8.77
2022-10-12T15:49:38.487Z,8.83
2022-10-12T15:52:08.079Z,8.33
2022-10-12T15:54:36.172Z,8.70
2022-10-12T15:57:04.319Z,8.83
2022-10-12T15:59:32.641Z,9.07
2022-10-12T16:02:00.785Z,8.40
2022-10-12T16:04:29.067Z,9.10
2022-10-12T16:07:01.149Z,8.73
2022-10-12T16:09:30.647Z,8.97
2022-10-12T16:11:58.804Z,9.30
2022-10-12T16:14:26.943Z,9.37
2022-10-12T16:16:55.087Z,8.73
2022-10-12T16:19:23.238Z,9.30
2022-10-12T16:21:51.400Z,9.43
2022-10-12T16:24:19.524Z,8.83
2022-10-12T16:26:49.864Z,10.00
2022-10-12T16:29:17.964Z,10.27
2022-10-12T16:31:46.105Z,9.80
2022-10-12T16:34:14.223Z,9.30
2022-10-12T16:36:42.332Z,10.43
2022-10-12T16:39:10.549Z,9.57
2022-10-12T16:41:38.640Z,10.60
2022-10-12T16:44:08.217Z,9.97
2022-10-12T16:46:36.965Z,10.20
2022-10-12T16:49:05.120Z,10.60
2022-10-12T16:51:33.249Z,10.17
2022-10-12T16:54:01.554Z,10.70
2022-10-12T16:56:29.787Z,10.73
2022-10-12T16:58:57.903Z,10.93
2022-10-12T17:01:27.344Z,10.90
2022-10-12T17:03:55.500Z,11.40
2022-10-12T17:06:23.596Z,10.60
2022-10-12T17:08:51.713Z,10.83
2022-10-12T17:11:21.191Z,10.23
2022-10-12T17:13:49.559Z,9.93
2022-10-12T17:16:36.470Z,10.80
2022-10-12T17:19:05.953Z,10.73
2022-10-12T17:21:34.522Z,10.90
2022-10-12T17:24:03.037Z,10.73
2022-10-12T17:26:31.176Z,11.33
2022-10-12T17:28:59.357Z,10.50
2022-10-12T17:31:28.595Z,11.30
2022-10-12T17:33:56.749Z,10.67
2022-10-12T17:36:28.387Z,11.43
2022-10-12T17:38:57.068Z,10.73
2022-10-12T17:41:25.414Z,10.13
2022-10-12T17:43:53.578Z,11.83
2022-10-12T17:46:22.848Z,10.77
2022-10-12T17:48:51.491Z,11.23
2022-10-12T17:51:19.693Z,11.30
2022-10-12T17:53:49.485Z,10.50
2022-10-12T17:56:17.600Z,11.40
2022-10-12T17:58:45.723Z,10.70
2022-10-12T18:01:15.138Z,10.60
2022-10-12T18:03:46.205Z,10.27
2022-10-12T18:06:16.693Z,10.23
2022-10-12T18:08:45.224Z,11.50
2022-10-12T18:11:14.879Z,10.90
2022-10-12T18:13:46.456Z,10.30
2022-10-12T18:16:14.665Z,10.87
2022-10-12T18:18:42.818Z,10.57
2022-10-12T18:21:12.789Z,9.73
2022-10-12T18:23:41.088Z,10.07
2022-10-12T18:26:10.070Z,10.90
2022-10-12T18:28:39.617Z,9.40
2022-10-12T18:31:08.182Z,10.13
2022-10-12T18:33:36.368Z,10.00
2022-10-12T18:36:05.159Z,9.67
2022-10-12T18:38:33.290Z,10.27
2022-10-12T18:41:04.865Z,10.50
2022-10-12T18:43:32.974Z,10.43
2022-10-12T18:46:05.754Z,10.67
2022-10-12T18:48:33.838Z,9.97
2022-10-12T18:51:05.103Z,9.77
2022-10-12T18:53:33.579Z,10.23
2022-10-12T18:56:03.085Z,9.67
2022-10-12T18:58:31.214Z,9.90
2022-10-12T19:00:59.672Z,10.23
2022-10-12T19:03:29.150Z,10.43
2022-10-12T19:06:04.370Z,9.50
2022-10-12T19:08:32.583Z,9.50
2022-10-12T19:11:00.679Z,10.53
2022-10-12T19:13:28.768Z,10.53
2022-10-12T19:15:56.863Z,11.30
2022-10-12T19:18:24.938Z,10.37
2022-10-12T19:20:54.363Z,9.93
2022-10-12T19:23:22.434Z,10.57
2022-10-12T19:25:50.556Z,10.67
2022-10-12T19:28:18.721Z,10.93
2022-10-12T19:30:46.938Z,10.20
2022-10-12T19:33:15.045Z,10.17
2022-10-12T19:35:43.139Z,9.90
2022-10-12T19:38:12.630Z,10.87
2022-10-12T19:40:40.706Z,10.20
2022-10-12T19:43:09.061Z,10.23
2022-10-12T19:45:40.803Z,9.93
2022-10-12T19:48:09.180Z,10.10
2022-10-12T19:50:37.667Z,9.17
2022-10-12T19:53:05.886Z,10.13
2022-10-12T19:55:38.822Z,9.57
2022-10-12T19:58:07.288Z,9.43
2022-10-12T20:00:35.848Z,9.67
2022-10-12T20:03:04.458Z,9.97
2022-10-12T20:05:32.598Z,9.57
2022-10-12T20:08:00.714Z,9.33
2022-10-12T20:10:28.784Z,9.50
2022-10-12T20:12:58.232Z,9.20
2022-10-12T20:15:26.311Z,9.03
2022-10-12T20:17:54.396Z,9.50
2022-10-12T20:20:22.555Z,9.40
2022-10-12T20:22:50.652Z,9.33
2022-10-12T20:25:18.915Z,9.13
2022-10-12T20:27:47.064Z,9.00
2022-10-12T20:30:16.671Z,8.60
2022-10-12T20:32:44.791Z,9.20
2022-10-12T20:35:12.887Z,8.40
2022-10-12T20:37:40.974Z,8.80
2022-10-12T20:40:09.650Z,8.80
2022-10-12T20:42:37.756Z,8.70
2022-10-12T20:45:06.211Z,9.43
2022-10-12T20:47:35.665Z,8.77
2022-10-12T20:50:04.043Z,8.63
2022-10-12T20:52:32.142Z,8.77
2022-10-12T20:55:00.286Z,8.53
2022-10-12T20:57:28.369Z,8.97
2022-10-12T20:59:56.484Z,8.80
2022-10-12T21:02:24.827Z,7.83
2022-10-12T21:04:54.451Z,8.37
2022-10-12T21:07:23.070Z,7.33
2022-10-12T21:09:52.305Z,8.20
2022-10-12T21:12:20.757Z,8.27
2022-10-12T21:14:49.226Z,7.47
2022-10-12T21:17:17.445Z,7.40
2022-10-12T21:19:45.547Z,7.70
2022-10-12T21:22:14.989Z,7.53
2022-10-12T21:24:43.115Z,7.20
2022-10-12T21:27:11.212Z,7.63
2022-10-12T21:29:39.386Z,7.23
2022-10-12T21:32:07.512Z,6.80
2022-10-12T21:34:35.623Z,6.60
2022-10-12T21:37:03.739Z,6.87
2022-10-12T21:39:33.199Z,6.83
2022-10-12T21:42:01.307Z,6.50
2022-10-12T21:44:29.419Z,6.67
2022-10-12T21:46:57.704Z,6.37
2022-10-12T21:49:25.935Z,6.87
2022-10-12T21:51:54.533Z,6.37
2022-10-12T21:54:22.621Z,6.80
2022-10-12T21:56:52.064Z,7.10
2022-10-12T21:59:20.200Z,6.50
2022-10-12T22:01:48.439Z,6.13
2022-10-12T22:04:16.954Z,6.77
2022-10-12T22:06:45.211Z,6.03
2022-10-12T22:09:16.437Z,6.33
2022-10-12T22:11:45.129Z,6.40
2022-10-12T22:14:15.844Z,6.40
2022-10-12T22:16:44.200Z,6.30
2022-10-12T22:19:15.006Z,6.70
2022-10-12T22:21:43.284Z,6.20
2022-10-12T22:24:11.435Z,5.87
2022-10-12T22:26:39.591Z,6.87
2022-10-12T22:29:08.532Z,6.57
2022-10-12T22:31:38.347Z,6.57
2022-10-12T22:34:06.868Z,6.17
2022-10-12T22:36:35.097Z,6.73
2022-10-12T22:39:03.454Z,6.50
2022-10-12T22:41:31.635Z,6.60
2022-10-12T22:43:59.754Z,6.83
2022-10-12T22:46:27.937Z,7.20
2022-10-12T22:48:57.376Z,6.10
2022-10-12T22:51:30.911Z,6.90
2022-10-12T22:53:59.246Z,6.73
2022-10-12T22:56:27.459Z,6.87
2022-10-12T22:58:55.771Z,6.83
2022-10-12T23:01:24.272Z,6.97
2022-10-12T23:03:52.440Z,7.20
2022-10-12T23:06:21.881Z,7.03
2022-10-12T23:08:50.041Z,6.53
2022-10-12T23:11:19.317Z,7.07
2022-10-12T23:13:48.083Z,7.07
2022-10-12T23:16:17.489Z,7.47
2022-10-12T23:18:45.580Z,7.63
2022-10-12T23:21:14.448Z,7.57
2022-10-12T23:23:44.383Z,7.93
2022-10-12T23:26:14.507Z,7.80
2022-10-12T23:28:42.940Z,9.03
2022-10-12T23:31:12.046Z,8.07
2022-10-12T23:33:40.774Z,8.60
2022-10-12T23:36:10.353Z,8.57
2022-10-12T23:38:39.539Z,8.50
2022-10-12T23:41:09.295Z,9.60
2022-10-12T23:43:37.608Z,9.23
2022-10-12T23:46:06.085Z,8.97
2022-10-12T23:51:20.572Z,10.23
2022-10-12T23:53:48.683Z,10.20
2022-10-12T23:56:18.229Z,10.50
2022-10-12T23:58:46.310Z,10.13
